sensor_id;sensor_type;location;lat;lon;timestamp;pressure;altitude;pressure_sealevel;temperature;humidity
24762;BME280;12865;51.934;10.330;2023-05-07T00:02:30;99489.81;;;10.99;100.00
24762;BME280;12865;51.934;10.330;2023-05-07T00:05:16;99489.91;;;10.88;100.00
24762;BME280;12865;51.934;10.330;2023-05-07T00:08:01;99495.97;;;10.90;100.00
24762;BME280;12865;51.934;10.330;2023-05-07T00:10:47;99499.78;;;10.97;100.00
24762;BME280;12865;51.934;10.330;2023-05-07T00:13:33;99504.88;;;11.10;100.00
24762;BME280;12865;51.934;10.330;2023-05-07T00:16:20;99506.69;;;11.00;100.00
24762;BME280;12865;51.934;10.330;2023-05-07T00:19:06;99508.03;;;10.85;100.00
24762;BME280;12865;51.934;10.330;2023-05-07T00:21:52;99511.38;;;10.87;100.00
24762;BME280;12865;51.934;10.330;2023-05-07T00:24:39;99508.94;;;10.74;100.00
24762;BME280;12865;51.934;10.330;2023-05-07T00:27:25;99500.38;;;11.11;100.00
24762;BME280;12865;51.934;10.330;2023-05-07T00:30:11;99494.47;;;11.07;100.00
24762;BME280;12865;51.934;10.330;2023-05-07T00:32:57;99488.25;;;10.97;100.00
24762;BME280;12865;51.934;10.330;2023-05-07T00:35:42;99496.09;;;10.89;100.00
24762;BME280;12865;51.934;10.330;2023-05-07T00:38:28;99490.44;;;10.82;100.00
24762;BME280;12865;51.934;10.330;2023-05-07T00:41:15;99492.94;;;10.74;100.00
24762;BME280;12865;51.934;10.330;2023-05-07T00:44:00;99494.75;;;10.74;100.00
24762;BME280;12865;51.934;10.330;2023-05-07T00:46:48;99494.38;;;10.78;100.00
24762;BME280;12865;51.934;10.330;2023-05-07T00:49:39;99489.31;;;10.75;100.00
24762;BME280;12865;51.934;10.330;2023-05-07T00:52:27;99493.84;;;10.94;100.00
24762;BME280;12865;51.934;10.330;2023-05-07T00:55:13;99492.56;;;10.88;100.00
24762;BME280;12865;51.934;10.330;2023-05-07T00:58:00;99492.25;;;10.72;100.00
24762;BME280;12865;51.934;10.330;2023-05-07T01:00:45;99491.56;;;10.80;100.00
24762;BME280;12865;51.934;10.330;2023-05-07T01:03:31;99492.44;;;10.90;100.00
24762;BME280;12865;51.934;10.330;2023-05-07T01:06:17;99494.09;;;10.81;100.00
24762;BME280;12865;51.934;10.330;2023-05-07T01:09:03;99485.41;;;10.79;100.00
24762;BME280;12865;51.934;10.330;2023-05-07T01:11:50;99488.28;;;10.67;100.00
24762;BME280;12865;51.934;10.330;2023-05-07T01:14:37;99479.66;;;10.53;100.00
24762;BME280;12865;51.934;10.330;2023-05-07T01:17:23;99474.38;;;10.63;100.00
24762;BME280;12865;51.934;10.330;2023-05-07T01:20:09;99476.28;;;10.51;100.00
24762;BME280;12865;51.934;10.330;2023-05-07T01:23:00;99478.25;;;10.49;100.00
24762;BME280;12865;51.934;10.330;2023-05-07T01:25:52;99476.50;;;10.39;100.00
24762;BME280;12865;51.934;10.330;2023-05-07T01:28:38;99482.72;;;10.49;100.00
24762;BME280;12865;51.934;10.330;2023-05-07T01:31:24;99480.31;;;10.46;100.00
24762;BME280;12865;51.934;10.330;2023-05-07T01:34:11;99469.78;;;10.65;100.00
24762;BME280;12865;51.934;10.330;2023-05-07T01:36:59;99474.00;;;10.47;100.00
24762;BME280;12865;51.934;10.330;2023-05-07T01:39:45;99477.34;;;10.39;100.00
24762;BME280;12865;51.934;10.330;2023-05-07T01:42:31;99476.06;;;10.34;100.00
24762;BME280;12865;51.934;10.330;2023-05-07T01:45:17;99481.56;;;10.42;100.00
24762;BME280;12865;51.934;10.330;2023-05-07T01:48:03;99481.41;;;10.64;100.00
24762;BME280;12865;51.934;10.330;2023-05-07T01:50:49;99480.63;;;10.52;100.00
24762;BME280;12865;51.934;10.330;2023-05-07T01:53:38;99490.38;;;10.63;100.00
24762;BME280;12865;51.934;10.330;2023-05-07T01:56:24;99488.44;;;10.65;100.00
24762;BME280;12865;51.934;10.330;2023-05-07T01:59:10;99485.28;;;10.50;100.00
24762;BME280;12865;51.934;10.330;2023-05-07T02:01:56;99489.13;;;10.37;100.00
24762;BME280;12865;51.934;10.330;2023-05-07T02:04:41;99483.84;;;10.46;100.00
24762;BME280;12865;51.934;10.330;2023-05-07T02:07:27;99484.03;;;10.54;100.00
24762;BME280;12865;51.934;10.330;2023-05-07T02:10:13;99480.94;;;10.29;100.00
24762;BME280;12865;51.934;10.330;2023-05-07T02:12:59;99487.97;;;10.30;100.00
24762;BME280;12865;51.934;10.330;2023-05-07T02:15:47;99489.59;;;10.21;100.00
24762;BME280;12865;51.934;10.330;2023-05-07T02:18:35;99488.28;;;10.36;100.00
24762;BME280;12865;51.934;10.330;2023-05-07T02:21:21;99488.84;;;10.40;100.00
24762;BME280;12865;51.934;10.330;2023-05-07T02:24:07;99493.78;;;10.23;100.00
24762;BME280;12865;51.934;10.330;2023-05-07T02:26:52;99498.94;;;10.36;100.00
24762;BME280;12865;51.934;10.330;2023-05-07T02:29:38;99509.53;;;10.27;100.00
24762;BME280;12865;51.934;10.330;2023-05-07T02:32:24;99501.97;;;10.32;100.00
24762;BME280;12865;51.934;10.330;2023-05-07T02:35:10;99498.78;;;10.38;100.00
24762;BME280;12865;51.934;10.330;2023-05-07T02:37:55;99495.88;;;10.41;100.00
24762;BME280;12865;51.934;10.330;2023-05-07T02:40:41;99493.31;;;10.30;100.00
24762;BME280;12865;51.934;10.330;2023-05-07T02:43:27;99505.88;;;10.07;100.00
24762;BME280;12865;51.934;10.330;2023-05-07T02:46:13;99504.97;;;10.17;100.00
24762;BME280;12865;51.934;10.330;2023-05-07T02:48:58;99514.91;;;10.15;100.00
24762;BME280;12865;51.934;10.330;2023-05-07T02:51:44;99517.94;;;10.22;100.00
24762;BME280;12865;51.934;10.330;2023-05-07T02:54:30;99517.13;;;10.31;100.00
24762;BME280;12865;51.934;10.330;2023-05-07T02:57:16;99512.28;;;10.36;100.00
24762;BME280;12865;51.934;10.330;2023-05-07T03:00:16;99509.94;;;10.22;100.00
24762;BME280;12865;51.934;10.330;2023-05-07T03:03:03;99512.84;;;10.40;100.00
24762;BME280;12865;51.934;10.330;2023-05-07T03:05:48;99515.97;;;10.24;100.00
24762;BME280;12865;51.934;10.330;2023-05-07T03:08:34;99519.09;;;10.29;100.00
24762;BME280;12865;51.934;10.330;2023-05-07T03:11:20;99517.09;;;10.21;100.00
24762;BME280;12865;51.934;10.330;2023-05-07T03:14:06;99508.03;;;10.34;100.00
24762;BME280;12865;51.934;10.330;2023-05-07T03:16:51;99498.78;;;10.38;100.00
24762;BME280;12865;51.934;10.330;2023-05-07T03:19:37;99494.97;;;10.31;100.00
24762;BME280;12865;51.934;10.330;2023-05-07T03:22:23;99498.34;;;10.33;100.00
24762;BME280;12865;51.934;10.330;2023-05-07T03:25:09;99505.34;;;10.13;100.00
24762;BME280;12865;51.934;10.330;2023-05-07T03:27:56;99493.53;;;10.27;100.00
24762;BME280;12865;51.934;10.330;2023-05-07T03:30:42;99497.84;;;10.18;100.00
24762;BME280;12865;51.934;10.330;2023-05-07T03:33:27;99492.56;;;10.07;100.00
24762;BME280;12865;51.934;10.330;2023-05-07T03:36:13;99486.97;;;10.31;100.00
24762;BME280;12865;51.934;10.330;2023-05-07T03:38:59;99492.81;;;10.24;100.00
24762;BME280;12865;51.934;10.330;2023-05-07T03:41:44;99489.47;;;10.22;100.00
24762;BME280;12865;51.934;10.330;2023-05-07T03:44:30;99498.44;;;10.21;100.00
24762;BME280;12865;51.934;10.330;2023-05-07T03:47:16;99498.56;;;10.20;100.00
24762;BME280;12865;51.934;10.330;2023-05-07T03:50:02;99490.94;;;10.15;100.00
24762;BME280;12865;51.934;10.330;2023-05-07T03:52:47;99498.44;;;10.21;100.00
24762;BME280;12865;51.934;10.330;2023-05-07T03:55:33;99500.13;;;10.11;100.00
24762;BME280;12865;51.934;10.330;2023-05-07T03:58:18;99502.81;;;10.11;100.00
24762;BME280;12865;51.934;10.330;2023-05-07T04:01:04;99503.25;;;10.16;100.00
24762;BME280;12865;51.934;10.330;2023-05-07T04:03:50;99505.44;;;10.22;100.00
24762;BME280;12865;51.934;10.330;2023-05-07T04:06:35;99508.97;;;10.23;100.00
24762;BME280;12865;51.934;10.330;2023-05-07T04:09:21;99506.44;;;10.21;100.00
24762;BME280;12865;51.934;10.330;2023-05-07T04:12:07;99512.03;;;10.07;100.00
24762;BME280;12865;51.934;10.330;2023-05-07T04:14:52;99507.22;;;10.01;100.00
24762;BME280;12865;51.934;10.330;2023-05-07T04:17:38;99511.44;;;10.04;100.00
24762;BME280;12865;51.934;10.330;2023-05-07T04:20:24;99518.13;;;9.98;100.00
24762;BME280;12865;51.934;10.330;2023-05-07T04:23:09;99519.31;;;10.05;100.00
24762;BME280;12865;51.934;10.330;2023-05-07T04:25:55;99525.09;;;10.10;100.00
24762;BME280;12865;51.934;10.330;2023-05-07T04:28:41;99529.50;;;10.00;100.00
24762;BME280;12865;51.934;10.330;2023-05-07T04:31:27;99523.69;;;9.95;100.00
24762;BME280;12865;51.934;10.330;2023-05-07T04:34:13;99526.66;;;9.92;100.00
24762;BME280;12865;51.934;10.330;2023-05-07T04:36:59;99524.84;;;10.13;100.00
24762;BME280;12865;51.934;10.330;2023-05-07T04:39:45;99528.06;;;9.96;100.00
24762;BME280;12865;51.934;10.330;2023-05-07T04:42:31;99539.16;;;9.80;100.00
24762;BME280;12865;51.934;10.330;2023-05-07T04:45:17;99538.78;;;9.85;100.00
24762;BME280;12865;51.934;10.330;2023-05-07T04:48:03;99535.59;;;9.91;100.00
24762;BME280;12865;51.934;10.330;2023-05-07T04:50:49;99531.63;;;9.85;100.00
24762;BME280;12865;51.934;10.330;2023-05-07T04:53:35;99543.03;;;10.08;100.00
24762;BME280;12865;51.934;10.330;2023-05-07T04:56:21;99538.81;;;10.06;100.00
24762;BME280;12865;51.934;10.330;2023-05-07T04:59:07;99538.19;;;10.02;100.00
24762;BME280;12865;51.934;10.330;2023-05-07T05:01:52;99546.28;;;10.23;100.00
24762;BME280;12865;51.934;10.330;2023-05-07T05:04:38;99547.53;;;10.08;100.00
24762;BME280;12865;51.934;10.330;2023-05-07T05:07:24;99551.66;;;10.01;100.00
24762;BME280;12865;51.934;10.330;2023-05-07T05:10:09;99558.25;;;9.85;100.00
24762;BME280;12865;51.934;10.330;2023-05-07T05:12:55;99558.03;;;10.09;100.00
24762;BME280;12865;51.934;10.330;2023-05-07T05:15:41;99566.00;;;10.20;100.00
24762;BME280;12865;51.934;10.330;2023-05-07T05:18:26;99562.81;;;10.27;100.00
24762;BME280;12865;51.934;10.330;2023-05-07T05:21:12;99562.25;;;10.12;100.00
24762;BME280;12865;51.934;10.330;2023-05-07T05:23:58;99564.91;;;9.91;100.00
24762;BME280;12865;51.934;10.330;2023-05-07T05:26:43;99562.75;;;10.17;100.00
24762;BME280;12865;51.934;10.330;2023-05-07T05:29:29;99566.47;;;10.26;100.00
24762;BME280;12865;51.934;10.330;2023-05-07T05:32:16;99567.13;;;10.39;100.00
24762;BME280;12865;51.934;10.330;2023-05-07T05:35:02;99572.53;;;10.28;100.00
24762;BME280;12865;51.934;10.330;2023-05-07T05:37:48;99577.25;;;9.92;100.00
24762;BME280;12865;51.934;10.330;2023-05-07T05:40:34;99580.91;;;10.12;100.00
24762;BME280;12865;51.934;10.330;2023-05-07T05:43:19;99581.50;;;10.15;100.00
24762;BME280;12865;51.934;10.330;2023-05-07T05:46:05;99580.44;;;10.18;100.00
24762;BME280;12865;51.934;10.330;2023-05-07T05:48:51;99587.06;;;10.44;100.00
24762;BME280;12865;51.934;10.330;2023-05-07T05:51:37;99585.72;;;10.29;100.00
24762;BME280;12865;51.934;10.330;2023-05-07T05:54:22;99588.91;;;10.23;100.00
24762;BME280;12865;51.934;10.330;2023-05-07T05:57:08;99599.38;;;10.36;100.00
24762;BME280;12865;51.934;10.330;2023-05-07T05:59:54;99596.81;;;10.34;100.00
24762;BME280;12865;51.934;10.330;2023-05-07T06:02:40;99591.81;;;10.41;100.00
24762;BME280;12865;51.934;10.330;2023-05-07T06:05:26;99588.94;;;10.33;100.00
24762;BME280;12865;51.934;10.330;2023-05-07T06:08:11;99578.06;;;10.36;100.00
24762;BME280;12865;51.934;10.330;2023-05-07T06:10:58;99578.25;;;10.44;100.00
24762;BME280;12865;51.934;10.330;2023-05-07T06:13:43;99576.69;;;10.41;100.00
24762;BME280;12865;51.934;10.330;2023-05-07T06:16:29;99575.63;;;10.33;100.00
24762;BME280;12865;51.934;10.330;2023-05-07T06:19:15;99577.13;;;10.46;100.00
24762;BME280;12865;51.934;10.330;2023-05-07T06:22:03;99574.88;;;10.42;100.00
24762;BME280;12865;51.934;10.330;2023-05-07T06:24:49;99580.97;;;10.53;100.00
24762;BME280;12865;51.934;10.330;2023-05-07T06:27:35;99578.25;;;10.44;100.00
24762;BME280;12865;51.934;10.330;2023-05-07T06:30:20;99585.72;;;10.50;100.00
24762;BME280;12865;51.934;10.330;2023-05-07T06:33:06;99582.97;;;10.61;100.00
24762;BME280;12865;51.934;10.330;2023-05-07T06:35:52;99587.13;;;10.54;100.00
24762;BME280;12865;51.934;10.330;2023-05-07T06:38:37;99587.25;;;10.73;100.00
24762;BME280;12865;51.934;10.330;2023-05-07T06:41:23;99599.38;;;10.77;100.00
24762;BME280;12865;51.934;10.330;2023-05-07T06:44:09;99600.78;;;10.81;100.00
24762;BME280;12865;51.934;10.330;2023-05-07T06:46:54;99603.56;;;10.80;100.00
24762;BME280;12865;51.934;10.330;2023-05-07T06:49:40;99601.06;;;10.78;100.00
24762;BME280;12865;51.934;10.330;2023-05-07T06:52:25;99602.75;;;10.79;100.00
24762;BME280;12865;51.934;10.330;2023-05-07T06:55:11;99602.53;;;10.92;100.00
24762;BME280;12865;51.934;10.330;2023-05-07T06:57:57;99612.91;;;10.95;100.00
24762;BME280;12865;51.934;10.330;2023-05-07T07:00:46;99605.69;;;11.07;100.00
24762;BME280;12865;51.934;10.330;2023-05-07T07:03:31;99608.19;;;10.98;100.00
24762;BME280;12865;51.934;10.330;2023-05-07T07:06:17;99602.75;;;11.10;100.00
24762;BME280;12865;51.934;10.330;2023-05-07T07:09:03;99605.69;;;11.07;100.00
24762;BME280;12865;51.934;10.330;2023-05-07T07:11:49;99615.47;;;10.96;100.00
24762;BME280;12865;51.934;10.330;2023-05-07T07:14:34;99620.22;;;10.93;100.00
24762;BME280;12865;51.934;10.330;2023-05-07T07:17:20;99615.25;;;11.09;100.00
24762;BME280;12865;51.934;10.330;2023-05-07T07:20:06;99616.22;;;11.08;100.00
24762;BME280;12865;51.934;10.330;2023-05-07T07:22:52;99616.88;;;11.00;100.00
24762;BME280;12865;51.934;10.330;2023-05-07T07:25:38;99619.69;;;10.99;100.00
24762;BME280;12865;51.934;10.330;2023-05-07T07:28:23;99620.44;;;11.11;100.00
24762;BME280;12865;51.934;10.330;2023-05-07T07:31:09;99619.88;;;11.07;100.00
24762;BME280;12865;51.934;10.330;2023-05-07T07:33:55;99619.47;;;11.12;100.00
24762;BME280;12865;51.934;10.330;2023-05-07T07:36:40;99619.88;;;10.86;100.00
24762;BME280;12865;51.934;10.330;2023-05-07T07:39:26;99620.16;;;10.83;100.00
24762;BME280;12865;51.934;10.330;2023-05-07T07:42:12;99611.09;;;10.95;100.00
24762;BME280;12865;51.934;10.330;2023-05-07T07:44:57;99612.00;;;11.06;100.00
24762;BME280;12865;51.934;10.330;2023-05-07T07:47:43;99621.84;;;11.05;100.00
24762;BME280;12865;51.934;10.330;2023-05-07T07:50:29;99613.72;;;11.16;100.00
24762;BME280;12865;51.934;10.330;2023-05-07T07:53:14;99619.66;;;11.20;100.00
24762;BME280;12865;51.934;10.330;2023-05-07T07:56:00;99613.91;;;11.24;100.00
24762;BME280;12865;51.934;10.330;2023-05-07T07:58:46;99619.69;;;11.29;100.00
24762;BME280;12865;51.934;10.330;2023-05-07T08:01:31;99627.47;;;11.42;100.00
24762;BME280;12865;51.934;10.330;2023-05-07T08:04:18;99625.13;;;11.49;100.00
24762;BME280;12865;51.934;10.330;2023-05-07T08:07:03;99628.16;;;11.34;100.00
24762;BME280;12865;51.934;10.330;2023-05-07T08:09:49;99620.22;;;11.23;100.00
24762;BME280;12865;51.934;10.330;2023-05-07T08:12:35;99620.38;;;11.62;100.00
24762;BME280;12865;51.934;10.330;2023-05-07T08:15:20;99625.84;;;11.60;100.00
24762;BME280;12865;51.934;10.330;2023-05-07T08:18:06;99621.59;;;11.58;100.00
24762;BME280;12865;51.934;10.330;2023-05-07T08:20:52;99628.63;;;11.59;100.00
24762;BME280;12865;51.934;10.330;2023-05-07T08:23:37;99622.69;;;11.86;100.00
24762;BME280;12865;51.934;10.330;2023-05-07T08:26:23;99628.59;;;11.79;100.00
24762;BME280;12865;51.934;10.330;2023-05-07T08:29:09;99625.19;;;11.77;100.00
24762;BME280;12865;51.934;10.330;2023-05-07T08:31:54;99624.66;;;11.84;100.00
24762;BME280;12865;51.934;10.330;2023-05-07T08:34:40;99628.16;;;11.74;100.00
24762;BME280;12865;51.934;10.330;2023-05-07T08:37:26;99633.22;;;11.77;100.00
24762;BME280;12865;51.934;10.330;2023-05-07T08:40:11;99634.66;;;11.82;100.00
24762;BME280;12865;51.934;10.330;2023-05-07T08:42:58;99643.09;;;12.06;100.00
24762;BME280;12865;51.934;10.330;2023-05-07T08:45:45;99645.09;;;12.13;100.00
24762;BME280;12865;51.934;10.330;2023-05-07T08:48:32;99643.69;;;12.09;100.00
24762;BME280;12865;51.934;10.330;2023-05-07T08:51:19;99643.66;;;11.90;100.00
24762;BME280;12865;51.934;10.330;2023-05-07T08:54:06;99639.59;;;11.96;100.00
24762;BME280;12865;51.934;10.330;2023-05-07T08:56:53;99643.09;;;11.96;100.00
24762;BME280;12865;51.934;10.330;2023-05-07T08:59:40;99644.81;;;12.16;100.00
24762;BME280;12865;51.934;10.330;2023-05-07T09:02:26;99649.16;;;12.08;100.00
24762;BME280;12865;51.934;10.330;2023-05-07T09:05:12;99645.09;;;12.13;100.00
24762;BME280;12865;51.934;10.330;2023-05-07T09:08:01;99649.78;;;12.40;100.00
24762;BME280;12865;51.934;10.330;2023-05-07T09:10:48;99644.28;;;12.32;100.00
24762;BME280;12865;51.934;10.330;2023-05-07T09:13:33;99647.50;;;12.45;100.00
24762;BME280;12865;51.934;10.330;2023-05-07T09:16:20;99638.06;;;12.22;100.00
24762;BME280;12865;51.934;10.330;2023-05-07T09:19:06;99649.06;;;12.38;100.00
24762;BME280;12865;51.934;10.330;2023-05-07T09:22:02;99646.50;;;12.37;100.00
24762;BME280;12865;51.934;10.330;2023-05-07T09:24:49;99645.94;;;12.52;100.00
24762;BME280;12865;51.934;10.330;2023-05-07T09:27:35;99649.03;;;12.57;100.00
24762;BME280;12865;51.934;10.330;2023-05-07T09:30:21;99646.38;;;12.57;100.00
24762;BME280;12865;51.934;10.330;2023-05-07T09:33:07;99649.59;;;12.71;100.00
24762;BME280;12865;51.934;10.330;2023-05-07T09:35:52;99651.84;;;12.66;99.90
24762;BME280;12865;51.934;10.330;2023-05-07T09:38:39;99659.31;;;12.43;100.00
24762;BME280;12865;51.934;10.330;2023-05-07T09:41:26;99651.84;;;12.37;100.00
24762;BME280;12865;51.934;10.330;2023-05-07T09:44:12;99648.91;;;12.30;100.00
24762;BME280;12865;51.934;10.330;2023-05-07T09:47:00;99660.16;;;12.43;100.00
24762;BME280;12865;51.934;10.330;2023-05-07T09:49:47;99648.19;;;12.28;100.00
24762;BME280;12865;51.934;10.330;2023-05-07T09:52:34;99651.72;;;12.38;100.00
24762;BME280;12865;51.934;10.330;2023-05-07T09:55:21;99656.63;;;12.24;100.00
24762;BME280;12865;51.934;10.330;2023-05-07T09:58:07;99655.66;;;12.53;100.00
24762;BME280;12865;51.934;10.330;2023-05-07T10:00:53;99652.44;;;12.59;100.00
24762;BME280;12865;51.934;10.330;2023-05-07T10:03:40;99663.97;;;12.60;100.00
24762;BME280;12865;51.934;10.330;2023-05-07T10:06:28;99655.78;;;12.62;99.80
24762;BME280;12865;51.934;10.330;2023-05-07T10:09:14;99660.59;;;12.58;100.00
24762;BME280;12865;51.934;10.330;2023-05-07T10:12:01;99651.00;;;12.65;100.00
24762;BME280;12865;51.934;10.330;2023-05-07T10:14:47;99653.50;;;12.76;98.80
24762;BME280;12865;51.934;10.330;2023-05-07T10:17:38;99654.91;;;12.90;98.54
24762;BME280;12865;51.934;10.330;2023-05-07T10:20:25;99652.13;;;12.82;98.74
24762;BME280;12865;51.934;10.330;2023-05-07T10:23:13;99646.50;;;12.66;100.00
24762;BME280;12865;51.934;10.330;2023-05-07T10:26:05;99658.47;;;12.71;100.00
24762;BME280;12865;51.934;10.330;2023-05-07T10:28:58;99660.41;;;12.88;99.95
24762;BME280;12865;51.934;10.330;2023-05-07T10:31:50;99663.34;;;13.14;99.90
24762;BME280;12865;51.934;10.330;2023-05-07T10:34:41;99661.66;;;13.13;97.71
24762;BME280;12865;51.934;10.330;2023-05-07T10:37:29;99669.81;;;13.21;98.57
24762;BME280;12865;51.934;10.330;2023-05-07T10:40:15;99652.28;;;13.36;98.18
24762;BME280;12865;51.934;10.330;2023-05-07T10:43:04;99660.47;;;13.35;98.07
24762;BME280;12865;51.934;10.330;2023-05-07T10:46:15;99668.53;;;13.53;94.79
24762;BME280;12865;51.934;10.330;2023-05-07T10:52:14;99669.88;;;13.39;96.27
24762;BME280;12865;51.934;10.330;2023-05-07T10:58:23;99664.59;;;13.57;95.47
24762;BME280;12865;51.934;10.330;2023-05-07T11:01:10;99666.09;;;13.69;93.63
24762;BME280;12865;51.934;10.330;2023-05-07T11:04:15;99664.59;;;13.84;93.04
24762;BME280;12865;51.934;10.330;2023-05-07T11:09:57;99660.44;;;13.99;92.53
24762;BME280;12865;51.934;10.330;2023-05-07T11:12:48;99659.75;;;13.88;90.66
24762;BME280;12865;51.934;10.330;2023-05-07T11:15:39;99655.81;;;14.09;89.09
24762;BME280;12865;51.934;10.330;2023-05-07T11:18:46;99657.94;;;14.15;91.08
24762;BME280;12865;51.934;10.330;2023-05-07T11:21:36;99662.50;;;14.50;91.71
24762;BME280;12865;51.934;10.330;2023-05-07T11:24:22;99663.22;;;14.61;92.99
24762;BME280;12865;51.934;10.330;2023-05-07T11:27:08;99663.16;;;14.52;92.02
24762;BME280;12865;51.934;10.330;2023-05-07T11:29:55;99668.28;;;14.28;94.94
24762;BME280;12865;51.934;10.330;2023-05-07T11:32:40;99664.56;;;14.11;93.18
24762;BME280;12865;51.934;10.330;2023-05-07T11:35:26;99663.97;;;14.18;93.33
24762;BME280;12865;51.934;10.330;2023-05-07T11:38:12;99661.13;;;14.19;97.40
24762;BME280;12865;51.934;10.330;2023-05-07T11:40:59;99656.00;;;14.26;93.69
24762;BME280;12865;51.934;10.330;2023-05-07T11:43:56;99660.69;;;14.59;91.48
24762;BME280;12865;51.934;10.330;2023-05-07T11:46:45;99658.78;;;14.69;88.33
24762;BME280;12865;51.934;10.330;2023-05-07T11:49:31;99671.94;;;14.80;87.46
24762;BME280;12865;51.934;10.330;2023-05-07T11:52:18;99664.66;;;14.73;87.25
24762;BME280;12865;51.934;10.330;2023-05-07T11:55:04;99668.41;;;14.98;89.48
24762;BME280;12865;51.934;10.330;2023-05-07T11:57:50;99664.56;;;15.26;85.69
24762;BME280;12865;51.934;10.330;2023-05-07T12:00:35;99667.25;;;15.26;83.21
24762;BME280;12865;51.934;10.330;2023-05-07T12:03:21;99675.56;;;15.15;84.35
24762;BME280;12865;51.934;10.330;2023-05-07T12:06:07;99674.34;;;15.35;82.08
24762;BME280;12865;51.934;10.330;2023-05-07T12:08:53;99672.09;;;15.22;80.21
24762;BME280;12865;51.934;10.330;2023-05-07T12:11:38;99683.34;;;15.00;82.41
24762;BME280;12865;51.934;10.330;2023-05-07T12:14:27;99675.63;;;14.97;82.90
24762;BME280;12865;51.934;10.330;2023-05-07T12:17:15;99681.28;;;14.94;83.46
24762;BME280;12865;51.934;10.330;2023-05-07T12:20:01;99674.56;;;14.90;84.58
24762;BME280;12865;51.934;10.330;2023-05-07T12:22:47;99675.25;;;14.92;85.77
24762;BME280;12865;51.934;10.330;2023-05-07T12:25:35;99680.13;;;14.97;83.60
24762;BME280;12865;51.934;10.330;2023-05-07T12:28:22;99676.19;;;15.09;85.30
24762;BME280;12865;51.934;10.330;2023-05-07T12:31:07;99677.16;;;15.00;82.72
24762;BME280;12865;51.934;10.330;2023-05-07T12:33:53;99696.50;;;14.85;81.80
24762;BME280;12865;51.934;10.330;2023-05-07T12:36:40;99680.22;;;14.87;81.73
24762;BME280;12865;51.934;10.330;2023-05-07T12:39:25;99688.41;;;14.42;83.74
24762;BME280;12865;51.934;10.330;2023-05-07T12:42:15;99682.63;;;14.54;85.38
24762;BME280;12865;51.934;10.330;2023-05-07T12:45:08;99684.19;;;14.57;84.84
24762;BME280;12865;51.934;10.330;2023-05-07T12:47:53;99685.25;;;14.64;84.20
24762;BME280;12865;51.934;10.330;2023-05-07T12:50:39;99677.31;;;14.80;82.78
24762;BME280;12865;51.934;10.330;2023-05-07T12:53:26;99685.06;;;14.83;83.27
24762;BME280;12865;51.934;10.330;2023-05-07T12:56:15;99671.50;;;14.85;83.79
24762;BME280;12865;51.934;10.330;2023-05-07T12:59:01;99682.53;;;15.00;80.96
24762;BME280;12865;51.934;10.330;2023-05-07T13:01:46;99690.47;;;15.09;80.76
24762;BME280;12865;51.934;10.330;2023-05-07T13:04:32;99680.78;;;14.90;82.31
24762;BME280;12865;51.934;10.330;2023-05-07T13:07:18;99679.56;;;14.85;82.14
24762;BME280;12865;51.934;10.330;2023-05-07T13:10:04;99676.25;;;14.91;82.39
24762;BME280;12865;51.934;10.330;2023-05-07T13:12:50;99679.03;;;15.07;81.47
24762;BME280;12865;51.934;10.330;2023-05-07T13:15:36;99678.50;;;15.04;80.40
24762;BME280;12865;51.934;10.330;2023-05-07T13:18:25;99676.13;;;15.01;80.54
24762;BME280;12865;51.934;10.330;2023-05-07T13:21:11;99677.75;;;14.93;79.99
24762;BME280;12865;51.934;10.330;2023-05-07T13:23:58;99674.84;;;15.05;80.12
24762;BME280;12865;51.934;10.330;2023-05-07T13:26:44;99668.59;;;15.30;81.04
24762;BME280;12865;51.934;10.330;2023-05-07T13:29:30;99665.47;;;15.60;77.66
24762;BME280;12865;51.934;10.330;2023-05-07T13:32:15;99658.38;;;15.59;77.86
24762;BME280;12865;51.934;10.330;2023-05-07T13:35:01;99654.78;;;15.77;76.71
24762;BME280;12865;51.934;10.330;2023-05-07T13:37:47;99659.81;;;15.80;77.64
24762;BME280;12865;51.934;10.330;2023-05-07T13:40:34;99658.88;;;16.05;76.18
24762;BME280;12865;51.934;10.330;2023-05-07T13:43:20;99657.41;;;16.10;75.12
24762;BME280;12865;51.934;10.330;2023-05-07T13:46:05;99668.19;;;16.19;73.37
24762;BME280;12865;51.934;10.330;2023-05-07T13:48:51;99663.41;;;15.96;76.36
24762;BME280;12865;51.934;10.330;2023-05-07T13:51:37;99656.63;;;15.84;77.07
24762;BME280;12865;51.934;10.330;2023-05-07T13:54:22;99648.09;;;15.89;75.66
24762;BME280;12865;51.934;10.330;2023-05-07T13:57:08;99650.59;;;15.82;76.19
24762;BME280;12865;51.934;10.330;2023-05-07T13:59:54;99648.81;;;16.07;74.92
24762;BME280;12865;51.934;10.330;2023-05-07T14:02:40;99661.25;;;16.08;77.25
24762;BME280;12865;51.934;10.330;2023-05-07T14:05:26;99648.03;;;15.73;76.08
24762;BME280;12865;51.934;10.330;2023-05-07T14:08:14;99650.22;;;15.77;76.87
24762;BME280;12865;51.934;10.330;2023-05-07T14:11:00;99648.28;;;15.53;77.46
24762;BME280;12865;51.934;10.330;2023-05-07T14:13:45;99651.41;;;15.75;77.02
24762;BME280;12865;51.934;10.330;2023-05-07T14:16:31;99656.25;;;15.71;77.45
24762;BME280;12865;51.934;10.330;2023-05-07T14:19:17;99656.69;;;15.58;76.98
24762;BME280;12865;51.934;10.330;2023-05-07T14:22:02;99655.19;;;15.30;78.08
24762;BME280;12865;51.934;10.330;2023-05-07T14:24:49;99646.63;;;15.60;79.77
24762;BME280;12865;51.934;10.330;2023-05-07T14:27:35;99649.13;;;15.96;77.94
24762;BME280;12865;51.934;10.330;2023-05-07T14:30:20;99642.75;;;16.05;76.20
24762;BME280;12865;51.934;10.330;2023-05-07T14:33:09;99648.84;;;16.23;73.89